Boyero, Colorado
Current Conditions -  °F | °C
As of 8:55 PM on Friday 24 Oct 2014 (Local Time) from KLIC Reporting Station
Clear Clear  
Wind Chill: 41°   Ceiling: Unl
Heat Index: 44°   Visibility: 10mi
Dew Point: 32°   Wind: 6mph
Humidity: 63%   Direction: 360°N
Pressure: 30.21"   Gusts: NA
Location:  38.9913°N, 103.506°W
Report Text: KLIC 250255Z AUTO 36005KT 10SM CLR 07/00 A3021 RMK AO2 SLP191 T00670000 51014
Loading
Personal Weather Stations






























Interactive Weather Map
Tropical Storm Tracking
New forecast layout! Learn more

10-Day Weather Forecast

Advertisements
Track Severe Weather on mobile